RYR544 LPPD-LPMA
Flight info
| Callsign | RYR544 |
|---|---|
| Flight time | N/A |
| Altitude | 35000 |
| Route | AMIXI DCT VSM DCT ETROX DCT IRKID DCT IBBAN |
| Aircraft | B738/M-SDE2E3FGHIRWXY/LB1 |
Departure
| Time | N/A |
|---|---|
| Airport | João Paulo II Airport (LPPD) |
Arrival
| Time | 2026-05-03 20:18 |
|---|---|
| Airport | Cristiano Ronaldo International Airport (LPMA) |
| Time | Latitude | Longitude | Altitude | Speed | Heading |
|---|---|---|---|---|---|
| 2026-05-03 20:15 | 32.79706 | -16.65351 | 3000 ft | 155 kts | 229° |
| 2026-05-03 20:15 | 32.79010 | -16.66303 | 2834 ft | 150 kts | 229° |
| 2026-05-03 20:15 | 32.78320 | -16.67222 | 2703 ft | 147 kts | 227° |
| 2026-05-03 20:15 | 32.77620 | -16.68119 | 2553 ft | 151 kts | 226° |
| 2026-05-03 20:16 | 32.76860 | -16.69024 | 2391 ft | 159 kts | 226° |
| 2026-05-03 20:16 | 32.76096 | -16.69973 | 2227 ft | 160 kts | 227° |
| 2026-05-03 20:16 | 32.75315 | -16.70927 | 1948 ft | 161 kts | 224° |
| 2026-05-03 20:16 | 32.74522 | -16.71859 | 1717 ft | 159 kts | 224° |
| 2026-05-03 20:17 | 32.73750 | -16.72772 | 1398 ft | 158 kts | 224° |
| 2026-05-03 20:17 | 32.72992 | -16.73741 | 1032 ft | 157 kts | 224° |
| 2026-05-03 20:17 | 32.72209 | -16.74652 | 735 ft | 152 kts | 220° |
| 2026-05-03 20:17 | 32.71485 | -16.75472 | 511 ft | 140 kts | 222° |
| 2026-05-03 20:18 | 32.70819 | -16.76237 | 293 ft | 125 kts | 220° |
| 2026-05-03 20:18 | 32.70241 | -16.76907 | 190 ft | 106 kts | 224° |
| 2026-05-03 20:18 | 32.69769 | -16.77467 | 182 ft | 80 kts | 224° |
| 2026-05-03 20:18 | 32.69475 | -16.77811 | 171 ft | 40 kts | 224° |
| 2026-05-03 20:19 | 32.69332 | -16.77957 | 168 ft | 18 kts | 186° |
| 2026-05-03 20:19 | 32.69293 | -16.77919 | 168 ft | 5 kts | 104° |
| 2026-05-03 20:19 | 32.69290 | -16.77875 | 168 ft | 5 kts | 84° |
| 2026-05-03 20:19 | 32.69306 | -16.77836 | 168 ft | 5 kts | 56° |
| 2026-05-03 20:20 | 32.69322 | -16.77814 | 168 ft | 5 kts | 47° |
| 2026-05-03 20:20 | 32.69348 | -16.77783 | 168 ft | 5 kts | 45° |
| 2026-05-03 20:20 | 32.69372 | -16.77752 | 168 ft | 5 kts | 57° |
| 2026-05-03 20:20 | 32.69365 | -16.77724 | 168 ft | 3 kts | 144° |
| 2026-05-03 20:21 | 32.69347 | -16.77708 | 168 ft | 3 kts | 140° |
| 2026-05-03 20:21 | 32.69335 | -16.77695 | 168 ft | 2 kts | 138° |
| 2026-05-03 20:21 | 32.69334 | -16.77694 | 168 ft | 0 kts | 139° |